createdAt,value
2017-01-08T00:00:05.530Z,37.29
2017-01-08T00:00:46.113Z,37.39
2017-01-08T00:01:26.695Z,37.31
2017-01-08T00:02:07.269Z,37.29
2017-01-08T00:02:47.849Z,37.41
2017-01-08T00:03:28.427Z,37.21
2017-01-08T00:04:09.021Z,37.19
2017-01-08T00:04:49.623Z,37.31
2017-01-08T00:05:30.206Z,37.39
2017-01-08T00:06:10.801Z,37.21
2017-01-08T00:06:51.385Z,37.31
2017-01-08T00:07:31.961Z,37.41
2017-01-08T00:08:12.547Z,37.29
2017-01-08T00:08:53.121Z,37.41
2017-01-08T00:09:33.727Z,37.29
2017-01-08T00:10:14.308Z,37.21
2017-01-08T00:10:54.893Z,37.19
2017-01-08T00:11:35.503Z,37.29
2017-01-08T00:12:16.081Z,37.29
2017-01-08T00:12:56.668Z,37.29
2017-01-08T00:13:37.265Z,37.29
2017-01-08T00:14:17.843Z,37.41
2017-01-08T00:14:58.437Z,37.29
2017-01-08T00:15:39.036Z,37.29
2017-01-08T00:16:19.631Z,37.41
2017-01-08T00:17:00.223Z,37.29
2017-01-08T00:17:40.824Z,37.19
2017-01-08T00:18:21.428Z,37.29
2017-01-08T00:19:02.023Z,37.29
2017-01-08T00:19:42.601Z,37.31
2017-01-08T00:20:23.182Z,37.39
2017-01-08T00:21:03.767Z,37.29
2017-01-08T00:21:44.354Z,37.39
2017-01-08T00:22:24.951Z,37.29
2017-01-08T00:23:05.552Z,37.29
2017-01-08T00:23:46.137Z,37.29
2017-01-08T00:24:26.724Z,37.31
2017-01-08T00:25:07.303Z,37.41
2017-01-08T00:25:47.886Z,37.29
2017-01-08T00:26:28.467Z,37.29
2017-01-08T00:27:09.057Z,37.29
2017-01-08T00:27:49.650Z,37.29
2017-01-08T00:28:30.239Z,37.29
2017-01-08T00:29:10.831Z,37.29
2017-01-08T00:29:51.441Z,37.39
2017-01-08T00:30:32.025Z,37.29
2017-01-08T00:31:12.612Z,37.39
2017-01-08T00:31:53.206Z,37.29
2017-01-08T00:32:33.796Z,37.19
2017-01-08T00:33:14.390Z,37.12
2017-01-08T00:33:54.986Z,37.48
2017-01-08T00:34:35.585Z,37.19
2017-01-08T00:35:16.176Z,37.29
2017-01-08T00:35:56.778Z,37.29
2017-01-08T00:36:37.366Z,37.29
2017-01-08T00:37:17.963Z,37.29
2017-01-08T00:37:58.555Z,37.39
2017-01-08T00:38:39.162Z,37.39
2017-01-08T00:39:19.744Z,37.41
2017-01-08T00:40:00.330Z,37.29
2017-01-08T00:40:40.920Z,37.31
2017-01-08T00:41:22.519Z,37.29
2017-01-08T00:42:03.120Z,37.39
2017-01-08T00:42:43.715Z,37.29
2017-01-08T00:43:24.305Z,37.39
2017-01-08T00:44:04.894Z,37.19
2017-01-08T00:44:45.476Z,37.29
2017-01-08T00:45:26.072Z,37.29
2017-01-08T00:46:06.665Z,37.29
2017-01-08T00:46:47.246Z,37.29
2017-01-08T00:47:27.827Z,37.48
2017-01-08T00:48:08.417Z,37.39
2017-01-08T00:48:48.996Z,37.29
2017-01-08T00:49:29.584Z,37.29
2017-01-08T00:50:10.181Z,37.39
2017-01-08T00:50:50.772Z,37.29
2017-01-08T00:51:31.363Z,37.39
2017-01-08T00:52:11.949Z,37.39
2017-01-08T00:52:52.521Z,37.39
2017-01-08T00:53:33.101Z,37.19
2017-01-08T00:54:13.685Z,37.29
2017-01-08T00:54:54.268Z,37.29
2017-01-08T00:55:34.851Z,37.39
2017-01-08T00:56:15.437Z,37.29
2017-01-08T00:56:56.025Z,37.29
2017-01-08T00:57:36.647Z,37.29
2017-01-08T00:58:17.257Z,37.29
2017-01-08T00:58:57.826Z,37.29
2017-01-08T00:59:38.423Z,37.29
2017-01-08T01:00:19.002Z,37.39
2017-01-08T01:00:59.596Z,37.29
2017-01-08T01:01:40.169Z,37.19
2017-01-08T01:02:20.764Z,37.31
2017-01-08T01:03:01.352Z,37.29
2017-01-08T01:03:41.935Z,37.58
2017-01-08T01:04:22.522Z,37.29
2017-01-08T01:05:03.101Z,37.39
2017-01-08T01:05:43.694Z,37.39
2017-01-08T01:06:24.277Z,37.29
2017-01-08T01:07:04.851Z,37.29
2017-01-08T01:07:45.442Z,37.39
2017-01-08T01:08:26.012Z,37.19
2017-01-08T01:09:06.609Z,37.39
2017-01-08T01:09:47.201Z,37.19
2017-01-08T01:10:27.776Z,37.29
2017-01-08T01:11:08.371Z,37.19
2017-01-08T01:11:48.960Z,37.29
2017-01-08T01:12:29.542Z,37.48
2017-01-08T01:13:10.121Z,37.29
2017-01-08T01:13:50.716Z,37.39
2017-01-08T01:14:31.317Z,37.39
2017-01-08T01:15:11.895Z,37.19
2017-01-08T01:15:52.502Z,37.48
2017-01-08T01:16:33.086Z,37.39
2017-01-08T01:17:13.675Z,37.39
2017-01-08T01:17:54.271Z,37.29
2017-01-08T01:18:34.869Z,37.29
2017-01-08T01:19:15.451Z,37.48
2017-01-08T01:19:56.056Z,37.39
2017-01-08T01:20:36.656Z,37.39
2017-01-08T01:21:17.249Z,37.39
2017-01-08T01:21:57.826Z,37.39
2017-01-08T01:22:38.402Z,37.29
2017-01-08T01:23:18.994Z,37.48
2017-01-08T01:23:59.579Z,37.39
2017-01-08T01:24:40.156Z,37.48
2017-01-08T01:25:20.749Z,37.39
2017-01-08T01:26:01.335Z,37.39
2017-01-08T01:26:41.916Z,37.19
2017-01-08T01:27:22.502Z,37.39
2017-01-08T01:28:03.083Z,37.39
2017-01-08T01:28:43.673Z,37.19
2017-01-08T01:29:24.254Z,37.19
2017-01-08T01:30:04.834Z,37.29
2017-01-08T01:30:45.422Z,37.29
2017-01-08T01:31:25.998Z,37.29
2017-01-08T01:32:06.594Z,37.39
2017-01-08T01:32:47.181Z,37.48
2017-01-08T01:33:27.770Z,37.29
2017-01-08T01:34:08.353Z,37.48
2017-01-08T01:34:48.936Z,37.29
2017-01-08T01:35:29.526Z,37.29
2017-01-08T01:36:10.105Z,37.29
2017-01-08T01:36:50.689Z,37.48
2017-01-08T01:37:31.268Z,37.29
2017-01-08T01:38:11.870Z,37.29
2017-01-08T01:38:52.453Z,37.29
2017-01-08T01:39:33.041Z,37.29
2017-01-08T01:40:13.619Z,37.39
2017-01-08T01:40:54.206Z,37.29
2017-01-08T01:41:34.793Z,37.39
2017-01-08T01:42:15.387Z,37.29
2017-01-08T01:42:55.977Z,37.39
2017-01-08T01:43:36.568Z,37.39
2017-01-08T01:44:17.146Z,37.39
2017-01-08T01:44:57.733Z,37.48
2017-01-08T01:45:38.325Z,37.48
2017-01-08T01:46:18.904Z,37.29
2017-01-08T01:46:59.487Z,37.39
2017-01-08T01:47:40.076Z,37.39
2017-01-08T01:48:20.658Z,37.39
2017-01-08T01:49:01.266Z,37.48
2017-01-08T01:49:41.846Z,37.29
2017-01-08T01:50:22.437Z,37.48
2017-01-08T01:51:03.026Z,37.31
2017-01-08T01:51:43.604Z,37.29
2017-01-08T01:52:24.200Z,37.39
2017-01-08T01:53:04.775Z,37.48
2017-01-08T01:53:45.361Z,37.39
2017-01-08T01:54:25.947Z,37.29
2017-01-08T01:55:06.543Z,37.29
2017-01-08T01:55:47.124Z,37.29
2017-01-08T01:56:27.701Z,37.29
2017-01-08T01:57:08.290Z,37.29
2017-01-08T01:57:48.880Z,37.48
2017-01-08T01:58:29.455Z,37.39
2017-01-08T01:59:10.042Z,37.39
2017-01-08T01:59:50.627Z,37.48
2017-01-08T02:00:31.213Z,37.19
2017-01-08T02:01:11.793Z,37.29
2017-01-08T02:01:52.387Z,37.39
2017-01-08T02:02:32.963Z,37.29
2017-01-08T02:03:13.555Z,37.48
2017-01-08T02:03:54.128Z,37.19
2017-01-08T02:04:34.735Z,37.39
2017-01-08T02:05:15.321Z,37.39
2017-01-08T02:05:55.912Z,37.39
2017-01-08T02:06:36.489Z,37.48
2017-01-08T02:07:17.074Z,37.29
2017-01-08T02:07:57.657Z,37.39
2017-01-08T02:08:38.240Z,37.39
2017-01-08T02:09:18.815Z,37.29
2017-01-08T02:09:59.393Z,37.29
2017-01-08T02:10:39.983Z,37.39
2017-01-08T02:11:20.596Z,37.19
2017-01-08T02:12:01.174Z,37.39
2017-01-08T02:12:41.757Z,37.29
2017-01-08T02:13:22.347Z,37.39
2017-01-08T02:14:02.935Z,37.39
2017-01-08T02:14:43.518Z,37.48
2017-01-08T02:15:24.108Z,37.39
2017-01-08T02:16:04.690Z,37.39
2017-01-08T02:16:45.269Z,37.39
2017-01-08T02:17:25.856Z,37.39
2017-01-08T02:18:06.435Z,37.39
2017-01-08T02:18:47.018Z,37.39
2017-01-08T02:19:27.609Z,37.29
2017-01-08T02:20:08.209Z,37.39
2017-01-08T02:20:48.794Z,37.39
2017-01-08T02:21:29.379Z,37.48
2017-01-08T02:22:09.959Z,37.19
2017-01-08T02:22:50.548Z,37.19
2017-01-08T02:23:31.133Z,37.48
2017-01-08T02:24:11.713Z,37.19
2017-01-08T02:24:52.326Z,37.39
2017-01-08T02:25:32.911Z,37.39
2017-01-08T02:26:13.497Z,37.39
2017-01-08T02:26:54.082Z,37.39
2017-01-08T02:27:34.678Z,37.48
2017-01-08T02:28:15.265Z,37.39
2017-01-08T02:28:55.849Z,37.39
2017-01-08T02:29:36.428Z,37.19
2017-01-08T02:30:17.003Z,37.29
2017-01-08T02:30:57.586Z,37.48
2017-01-08T02:31:38.199Z,37.48
2017-01-08T02:32:18.780Z,37.39
2017-01-08T02:32:59.371Z,37.58
2017-01-08T02:33:39.957Z,37.39
2017-01-08T02:34:20.538Z,37.19
2017-01-08T02:35:01.121Z,37.48
2017-01-08T02:35:41.713Z,37.29
2017-01-08T02:36:22.305Z,37.19
2017-01-08T02:37:02.904Z,37.39
2017-01-08T02:37:43.489Z,37.39
2017-01-08T02:38:24.063Z,37.48
2017-01-08T02:39:04.680Z,37.39
2017-01-08T02:39:45.263Z,37.39
2017-01-08T02:40:25.839Z,37.48
2017-01-08T02:41:06.427Z,37.39
2017-01-08T02:41:47.010Z,37.48
2017-01-08T02:42:27.592Z,37.48
2017-01-08T02:43:08.174Z,37.29
2017-01-08T02:43:48.756Z,37.48
2017-01-08T02:44:29.351Z,37.29
2017-01-08T02:45:09.934Z,37.48
2017-01-08T02:45:50.514Z,37.48
2017-01-08T02:46:31.104Z,37.39
2017-01-08T02:47:11.697Z,37.39
2017-01-08T02:47:52.274Z,37.39
2017-01-08T02:48:32.861Z,37.39
2017-01-08T02:49:13.454Z,37.29
2017-01-08T02:49:54.035Z,37.29
2017-01-08T02:50:34.627Z,37.39
2017-01-08T02:51:15.226Z,37.19
2017-01-08T02:51:55.814Z,37.29
2017-01-08T02:52:36.396Z,37.29
2017-01-08T02:53:16.981Z,37.1
2017-01-08T02:53:57.570Z,37.19
2017-01-08T02:54:38.156Z,37.19
2017-01-08T02:55:18.742Z,37.58
2017-01-08T02:55:59.317Z,37.29
2017-01-08T02:56:39.913Z,37.19
2017-01-08T02:57:20.491Z,37.29
2017-01-08T02:58:01.071Z,37.19
2017-01-08T02:58:41.659Z,37.19
2017-01-08T02:59:22.249Z,37.19
2017-01-08T03:00:02.832Z,37.29
2017-01-08T03:00:43.411Z,37.19
2017-01-08T03:01:24.003Z,37.29
2017-01-08T03:02:04.577Z,37.29
2017-01-08T03:02:45.163Z,37.39
2017-01-08T03:03:25.743Z,37.29
2017-01-08T03:04:06.332Z,37.29
2017-01-08T03:04:46.912Z,37.29
2017-01-08T03:05:27.488Z,37.1
2017-01-08T03:06:08.073Z,37.29
2017-01-08T03:06:48.671Z,37.29
2017-01-08T03:07:29.251Z,37.39
2017-01-08T03:08:09.822Z,37.1
2017-01-08T03:08:50.438Z,37.29
2017-01-08T03:09:31.024Z,37.19
2017-01-08T03:10:11.599Z,37.19
2017-01-08T03:10:52.189Z,37.29
2017-01-08T03:11:32.776Z,37.48
2017-01-08T03:12:13.383Z,37.39
2017-01-08T03:12:53.965Z,37.29
2017-01-08T03:13:34.545Z,37.1
2017-01-08T03:14:15.126Z,37.39
2017-01-08T03:14:55.713Z,37.39
2017-01-08T03:15:36.295Z,37.19
2017-01-08T03:16:16.874Z,37.19
2017-01-08T03:16:57.479Z,37.19
2017-01-08T03:17:38.064Z,37.19
2017-01-08T03:18:18.652Z,37.19
2017-01-08T03:18:59.234Z,37.29
2017-01-08T03:19:39.822Z,37.29
2017-01-08T03:20:20.424Z,37.29
2017-01-08T03:21:01.012Z,37.29
2017-01-08T03:21:41.588Z,37.19
2017-01-08T03:22:22.169Z,37.39
2017-01-08T03:23:02.747Z,37.29
2017-01-08T03:23:43.322Z,37.29
2017-01-08T03:24:23.916Z,37.19
2017-01-08T03:25:04.498Z,37.19
2017-01-08T03:25:45.081Z,37.19
2017-01-08T03:26:25.673Z,37.01
2017-01-08T03:27:06.260Z,37.29
2017-01-08T03:27:46.851Z,37.19
2017-01-08T03:28:27.431Z,37.19
2017-01-08T03:29:08.019Z,37.29
2017-01-08T03:29:48.604Z,37.19
2017-01-08T03:30:29.198Z,37.19
2017-01-08T03:31:09.777Z,37.29
2017-01-08T03:31:50.358Z,37.19
2017-01-08T03:32:30.947Z,37.29
2017-01-08T03:33:11.539Z,37.29
2017-01-08T03:33:52.115Z,37.19
2017-01-08T03:34:32.702Z,37.1
2017-01-08T03:35:13.293Z,37.19
2017-01-08T03:35:53.876Z,37.19
2017-01-08T03:36:34.463Z,37.39
2017-01-08T03:37:15.065Z,37.29
2017-01-08T03:37:55.635Z,37.29
2017-01-08T03:38:36.224Z,37.29
2017-01-08T03:39:16.806Z,37.1
2017-01-08T03:39:57.388Z,37.29
2017-01-08T03:40:37.975Z,37.1
2017-01-08T03:41:18.571Z,37.19
2017-01-08T03:41:59.164Z,37.1
2017-01-08T03:42:39.761Z,37.29
2017-01-08T03:43:20.344Z,37.29
2017-01-08T03:44:00.926Z,37.29
2017-01-08T03:44:41.524Z,37.19
2017-01-08T03:45:22.114Z,37.1
2017-01-08T03:46:02.733Z,37.29
2017-01-08T03:46:43.338Z,37.1
2017-01-08T03:47:23.938Z,37.29
2017-01-08T03:48:04.516Z,37.29
2017-01-08T03:48:45.100Z,37.29
2017-01-08T03:49:25.693Z,37.29
2017-01-08T03:50:06.280Z,37.01
2017-01-08T03:50:46.880Z,37.19
2017-01-08T03:51:27.482Z,37.1
2017-01-08T03:52:08.058Z,37.1
2017-01-08T03:52:48.639Z,37.19
2017-01-08T03:53:29.224Z,37.39
2017-01-08T03:54:09.809Z,37.1
2017-01-08T03:54:50.406Z,37.29
2017-01-08T03:55:30.991Z,37.29
2017-01-08T03:56:11.569Z,37.19
2017-01-08T03:56:52.153Z,37.19
2017-01-08T03:57:32.735Z,37.1
2017-01-08T03:58:13.314Z,37.1
2017-01-08T03:58:53.908Z,37.01
2017-01-08T03:59:34.524Z,37.19
2017-01-08T04:00:15.117Z,37.1
2017-01-08T04:00:55.722Z,37.19
2017-01-08T04:01:36.313Z,37.19
2017-01-08T04:02:16.926Z,37.1
2017-01-08T04:02:57.516Z,37.1
2017-01-08T04:03:38.130Z,37.1
2017-01-08T04:04:18.723Z,37.1
2017-01-08T04:04:59.335Z,37.1
2017-01-08T04:05:39.926Z,37.1
2017-01-08T04:06:20.521Z,37.19
2017-01-08T04:07:01.106Z,37.39
2017-01-08T04:07:41.687Z,37.19
2017-01-08T04:08:22.267Z,37.1
2017-01-08T04:09:02.854Z,37.39
2017-01-08T04:09:43.437Z,37.19
2017-01-08T04:10:24.016Z,37.1
2017-01-08T04:11:04.599Z,37.19
2017-01-08T04:11:45.179Z,37.1
2017-01-08T04:12:25.754Z,37.1
2017-01-08T04:13:06.343Z,37.1
2017-01-08T04:13:46.928Z,37.19
2017-01-08T04:14:27.511Z,37.1
2017-01-08T04:15:08.112Z,37.19
2017-01-08T04:15:48.695Z,37.19
2017-01-08T04:16:29.283Z,37.29
2017-01-08T04:17:09.896Z,37.19
2017-01-08T04:17:50.468Z,37.19
2017-01-08T04:18:31.061Z,37.19
2017-01-08T04:19:11.642Z,37.1
2017-01-08T04:19:52.221Z,37.01
2017-01-08T04:20:32.802Z,37.19
2017-01-08T04:21:13.378Z,37.19
2017-01-08T04:21:53.964Z,37.1
2017-01-08T04:22:34.563Z,37.1
2017-01-08T04:23:15.148Z,37.1
2017-01-08T04:23:55.729Z,37.19
2017-01-08T04:24:36.314Z,37.1
2017-01-08T04:25:16.894Z,37.1
2017-01-08T04:25:57.477Z,37.1
2017-01-08T04:26:38.076Z,37.1
2017-01-08T04:27:18.682Z,37.01
2017-01-08T04:27:59.259Z,37.1
2017-01-08T04:28:39.844Z,37.1
2017-01-08T04:29:20.431Z,37.1
2017-01-08T04:30:01.008Z,37.1
2017-01-08T04:30:41.589Z,37.1
2017-01-08T04:31:22.171Z,37.01
2017-01-08T04:32:02.747Z,37.1
2017-01-08T04:32:43.335Z,37.1
2017-01-08T04:33:23.918Z,37.1
2017-01-08T04:34:04.506Z,37.1
2017-01-08T04:34:45.087Z,37.01
2017-01-08T04:35:25.674Z,37.01
2017-01-08T04:36:06.254Z,37.1
2017-01-08T04:36:46.825Z,37.01
2017-01-08T04:37:27.406Z,37.01
2017-01-08T04:38:07.989Z,37.01
2017-01-08T04:38:48.594Z,37.1
2017-01-08T04:39:29.178Z,37.01
2017-01-08T04:40:09.765Z,37.1
2017-01-08T04:40:50.357Z,37.01
2017-01-08T04:41:30.956Z,36.91
2017-01-08T04:42:11.538Z,36.91
2017-01-08T04:42:52.128Z,37.19
2017-01-08T04:43:32.731Z,37.01
2017-01-08T04:44:13.311Z,37.01
2017-01-08T04:44:53.888Z,37.01
2017-01-08T04:45:34.477Z,36.91
2017-01-08T04:46:15.071Z,36.91
2017-01-08T04:46:55.660Z,36.91
2017-01-08T04:47:36.250Z,37.1
2017-01-08T04:48:16.839Z,36.91
2017-01-08T04:48:57.419Z,36.91
2017-01-08T04:49:37.999Z,36.91
2017-01-08T04:50:18.583Z,37.01
2017-01-08T04:50:59.169Z,36.91
2017-01-08T04:51:39.755Z,36.91
2017-01-08T04:52:20.354Z,36.91
2017-01-08T04:53:00.960Z,36.91
2017-01-08T04:53:41.533Z,37.01
2017-01-08T04:54:22.120Z,36.91
2017-01-08T04:55:02.714Z,37.01
2017-01-08T04:55:43.309Z,37.01
2017-01-08T04:56:23.891Z,37.01
2017-01-08T04:57:04.481Z,37.01
2017-01-08T04:57:45.070Z,37.01
2017-01-08T04:58:25.646Z,36.91
2017-01-08T04:59:06.228Z,37.01
2017-01-08T04:59:46.808Z,36.91
2017-01-08T05:00:27.385Z,37.1
2017-01-08T05:01:07.967Z,37.1
2017-01-08T05:01:48.544Z,37.01
2017-01-08T05:02:29.138Z,37.1
2017-01-08T05:03:09.722Z,37.01
2017-01-08T05:03:50.327Z,37.01
2017-01-08T05:04:30.926Z,37.01
2017-01-08T05:05:11.528Z,37.01
2017-01-08T05:05:52.114Z,37.1
2017-01-08T05:06:32.693Z,37.01
2017-01-08T05:07:13.299Z,37.01
2017-01-08T05:07:53.907Z,37.01
2017-01-08T05:08:34.502Z,37.1
2017-01-08T05:09:15.110Z,36.91
2017-01-08T05:09:55.706Z,36.91
2017-01-08T05:10:36.295Z,37.01
2017-01-08T05:11:16.910Z,36.81
2017-01-08T05:11:57.509Z,36.91
2017-01-08T05:12:38.084Z,37.01
2017-01-08T05:13:18.664Z,37.01
2017-01-08T05:13:59.269Z,37.01
2017-01-08T05:14:39.867Z,37.01
2017-01-08T05:15:20.467Z,37.01
2017-01-08T05:16:01.054Z,36.91
2017-01-08T05:16:41.650Z,36.91
2017-01-08T05:17:22.232Z,37.01
2017-01-08T05:18:02.826Z,37.01
2017-01-08T05:18:43.405Z,36.81
2017-01-08T05:19:23.999Z,36.91
2017-01-08T05:20:04.584Z,37.01
2017-01-08T05:20:45.177Z,37.1
2017-01-08T05:21:25.755Z,37.01
2017-01-08T05:22:06.339Z,37.01
2017-01-08T05:22:46.914Z,37.01
2017-01-08T05:23:27.511Z,37.01
2017-01-08T05:24:08.093Z,37.01
2017-01-08T05:24:48.690Z,37.01
2017-01-08T05:25:29.286Z,36.91
2017-01-08T05:26:09.897Z,37.01
2017-01-08T05:26:50.489Z,37.01
2017-01-08T05:27:31.063Z,36.91
2017-01-08T05:28:11.646Z,37.01
2017-01-08T05:28:52.245Z,36.91
2017-01-08T05:29:32.843Z,36.91
2017-01-08T05:30:13.417Z,37.01
2017-01-08T05:30:54.003Z,37.01
2017-01-08T05:31:34.590Z,37.01
2017-01-08T05:32:15.175Z,36.91
2017-01-08T05:32:55.758Z,37.01
2017-01-08T05:33:36.344Z,36.91
2017-01-08T05:34:16.950Z,37.01
2017-01-08T05:34:57.551Z,37.01
2017-01-08T05:35:38.126Z,37.01
2017-01-08T05:36:18.716Z,36.91
2017-01-08T05:36:59.309Z,37.01
2017-01-08T05:37:39.901Z,37.01
2017-01-08T05:38:20.482Z,37.01
2017-01-08T05:39:01.072Z,37.01
2017-01-08T05:39:41.659Z,36.81
2017-01-08T05:40:22.244Z,36.81
2017-01-08T05:41:02.836Z,36.91
2017-01-08T05:41:43.424Z,36.91
2017-01-08T05:42:24.010Z,37.01
2017-01-08T05:43:04.596Z,37.01
2017-01-08T05:43:45.182Z,36.91
2017-01-08T05:44:25.771Z,36.91
2017-01-08T05:45:06.356Z,37.1
2017-01-08T05:45:46.931Z,36.91
2017-01-08T05:46:27.514Z,37.01
2017-01-08T05:47:08.100Z,36.91
2017-01-08T05:47:48.680Z,36.91
2017-01-08T05:48:29.280Z,36.91
2017-01-08T05:49:09.868Z,36.91
2017-01-08T05:49:50.465Z,36.91
2017-01-08T05:50:31.049Z,37.01
2017-01-08T05:51:11.647Z,37.1
2017-01-08T05:51:52.243Z,36.91
2017-01-08T05:52:32.841Z,36.91
2017-01-08T05:53:13.416Z,36.91
2017-01-08T05:53:54.011Z,36.91
2017-01-08T05:54:34.598Z,37.01
2017-01-08T05:55:15.208Z,36.91
2017-01-08T05:55:55.783Z,37.01
2017-01-08T05:56:36.387Z,37.01
2017-01-08T05:57:16.969Z,37.01
2017-01-08T05:57:57.559Z,37.01
2017-01-08T05:58:38.150Z,37.01
2017-01-08T05:59:18.760Z,36.81
2017-01-08T05:59:59.313Z,37.01
2017-01-08T06:00:39.899Z,36.91
2017-01-08T06:01:20.493Z,36.91
2017-01-08T06:02:01.097Z,37.01
2017-01-08T06:02:41.700Z,37.01
2017-01-08T06:03:22.284Z,36.91
2017-01-08T06:04:02.862Z,36.91
2017-01-08T06:04:43.443Z,37.01
2017-01-08T06:05:24.027Z,36.91
2017-01-08T06:06:04.622Z,37.1
2017-01-08T06:06:45.215Z,36.91
2017-01-08T06:07:25.794Z,37.01
2017-01-08T06:08:06.373Z,37.01
2017-01-08T06:08:46.953Z,36.81
2017-01-08T06:09:27.534Z,37.01
2017-01-08T06:10:08.126Z,37.01
2017-01-08T06:10:48.715Z,36.91
2017-01-08T06:11:29.289Z,36.81
2017-01-08T06:12:09.871Z,36.71
2017-01-08T06:12:50.477Z,36.91
2017-01-08T06:13:31.068Z,36.91
2017-01-08T06:14:11.676Z,36.81
2017-01-08T06:14:52.271Z,37.01
2017-01-08T06:15:32.894Z,36.81
2017-01-08T06:16:13.484Z,36.91
2017-01-08T06:16:54.102Z,36.81
2017-01-08T06:17:34.688Z,36.71
2017-01-08T06:18:15.260Z,36.91
2017-01-08T06:18:55.847Z,36.81
2017-01-08T06:19:36.460Z,36.71
2017-01-08T06:20:17.045Z,36.81
2017-01-08T06:20:57.648Z,37.01
2017-01-08T06:21:38.245Z,37.01
2017-01-08T06:22:18.836Z,36.91
2017-01-08T06:22:59.417Z,36.81
2017-01-08T06:23:40.001Z,37.01
2017-01-08T06:24:20.580Z,36.71
2017-01-08T06:25:01.166Z,36.71
2017-01-08T06:25:41.767Z,36.71
2017-01-08T06:26:22.364Z,36.81
2017-01-08T06:27:02.958Z,36.91
2017-01-08T06:27:43.539Z,36.91
2017-01-08T06:28:24.118Z,36.81
2017-01-08T06:29:04.712Z,36.71
2017-01-08T06:29:45.294Z,36.81
2017-01-08T06:30:25.875Z,36.81
2017-01-08T06:31:06.456Z,36.81
2017-01-08T06:31:47.031Z,36.71
2017-01-08T06:32:27.617Z,36.81
2017-01-08T06:33:08.192Z,36.81
2017-01-08T06:33:48.782Z,36.81
2017-01-08T06:34:29.352Z,36.91
2017-01-08T06:35:09.933Z,36.81
2017-01-08T06:35:50.521Z,36.61
2017-01-08T06:36:31.104Z,36.81
2017-01-08T06:37:11.686Z,36.81
2017-01-08T06:37:52.283Z,36.81
2017-01-08T06:38:32.866Z,36.81
2017-01-08T06:39:13.465Z,36.91
2017-01-08T06:39:54.047Z,36.81
2017-01-08T06:40:34.633Z,36.81
2017-01-08T06:41:15.237Z,36.81
2017-01-08T06:41:55.819Z,36.81
2017-01-08T06:42:36.397Z,36.81
2017-01-08T06:43:17.000Z,36.81
2017-01-08T06:43:57.592Z,36.81
2017-01-08T06:44:38.181Z,36.81
2017-01-08T06:45:18.767Z,36.81
2017-01-08T06:45:59.355Z,36.81
2017-01-08T06:46:39.956Z,36.81
2017-01-08T06:47:20.527Z,36.81
2017-01-08T06:48:01.128Z,36.91
2017-01-08T06:48:41.716Z,36.61
2017-01-08T06:49:22.316Z,36.81
2017-01-08T06:50:02.922Z,36.81
2017-01-08T06:50:43.505Z,36.81
2017-01-08T06:51:24.077Z,36.61
2017-01-08T06:52:04.668Z,36.71
2017-01-08T06:52:45.242Z,36.61
2017-01-08T06:53:25.823Z,36.81
2017-01-08T06:54:06.405Z,36.81
2017-01-08T06:54:47.007Z,36.81
2017-01-08T06:55:27.591Z,36.61
2017-01-08T06:56:08.178Z,36.71
2017-01-08T06:56:48.779Z,36.71
2017-01-08T06:57:29.375Z,36.61
2017-01-08T06:58:09.965Z,36.91
2017-01-08T06:58:50.548Z,36.81
2017-01-08T06:59:31.157Z,36.81
2017-01-08T07:00:11.732Z,36.61
2017-01-08T07:00:52.316Z,36.91
2017-01-08T07:01:32.904Z,36.71
2017-01-08T07:02:13.478Z,36.81
2017-01-08T07:02:54.102Z,36.61
2017-01-08T07:03:34.681Z,36.81
2017-01-08T07:04:15.271Z,36.71
2017-01-08T07:04:55.854Z,36.71
2017-01-08T07:05:36.436Z,36.52
2017-01-08T07:06:17.020Z,36.61
2017-01-08T07:06:57.604Z,36.81
2017-01-08T07:07:38.199Z,36.61
2017-01-08T07:08:18.807Z,36.61
2017-01-08T07:08:59.404Z,36.71
2017-01-08T07:09:39.996Z,36.61
2017-01-08T07:10:20.579Z,36.81
2017-01-08T07:11:01.151Z,36.81
2017-01-08T07:11:41.738Z,36.61
2017-01-08T07:12:22.342Z,36.71
2017-01-08T07:13:02.931Z,36.61
2017-01-08T07:13:43.520Z,36.71
2017-01-08T07:14:24.108Z,36.61
2017-01-08T07:15:04.701Z,36.61
2017-01-08T07:15:45.291Z,36.61
2017-01-08T07:16:25.904Z,36.61
2017-01-08T07:17:06.488Z,36.81
2017-01-08T07:17:47.069Z,36.52
2017-01-08T07:18:27.661Z,36.61
2017-01-08T07:19:08.252Z,36.61
2017-01-08T07:19:48.845Z,36.61
2017-01-08T07:20:29.430Z,36.71
2017-01-08T07:21:10.007Z,36.71
2017-01-08T07:21:50.596Z,36.61
2017-01-08T07:22:31.181Z,36.61
2017-01-08T07:23:11.778Z,36.61
2017-01-08T07:23:52.353Z,36.71
2017-01-08T07:24:32.936Z,36.71
2017-01-08T07:25:13.516Z,36.52
2017-01-08T07:25:54.096Z,36.61
2017-01-08T07:26:34.677Z,36.61
2017-01-08T07:27:15.271Z,36.71
2017-01-08T07:27:55.844Z,36.61
2017-01-08T07:28:36.431Z,36.61
2017-01-08T07:29:17.030Z,36.52
2017-01-08T07:29:57.632Z,36.71
2017-01-08T07:30:38.238Z,36.61
2017-01-08T07:31:18.833Z,36.61
2017-01-08T07:31:59.440Z,36.61
2017-01-08T07:32:40.045Z,36.71
2017-01-08T07:33:20.622Z,36.61
2017-01-08T07:34:01.215Z,36.61
2017-01-08T07:34:41.807Z,36.71
2017-01-08T07:35:22.412Z,36.61
2017-01-08T07:36:03.016Z,36.52
2017-01-08T07:36:43.599Z,36.52
2017-01-08T07:37:24.179Z,36.61
2017-01-08T07:38:04.770Z,36.71
2017-01-08T07:38:45.357Z,36.61
2017-01-08T07:39:25.946Z,36.71
2017-01-08T07:40:06.525Z,36.71
2017-01-08T07:40:47.115Z,36.61
2017-01-08T07:41:27.711Z,36.52
2017-01-08T07:42:08.294Z,36.61
2017-01-08T07:42:48.872Z,36.61
2017-01-08T07:43:29.481Z,36.61
2017-01-08T07:44:10.088Z,36.61
2017-01-08T07:44:50.667Z,36.71
2017-01-08T07:45:31.277Z,36.71
2017-01-08T07:46:11.868Z,36.61
2017-01-08T07:46:52.463Z,36.61
2017-01-08T07:47:33.058Z,36.61
2017-01-08T07:48:13.645Z,36.61
2017-01-08T07:48:54.231Z,36.52
2017-01-08T07:49:34.806Z,36.71
2017-01-08T07:50:15.395Z,36.61
2017-01-08T07:50:55.974Z,36.61
2017-01-08T07:51:36.584Z,36.61
2017-01-08T07:52:17.190Z,36.71
2017-01-08T07:52:57.783Z,36.71
2017-01-08T07:53:38.394Z,36.61
2017-01-08T07:54:18.990Z,36.52
2017-01-08T07:54:59.570Z,36.71
2017-01-08T07:55:40.156Z,36.61
2017-01-08T07:56:20.735Z,36.52
2017-01-08T07:57:01.315Z,36.61
2017-01-08T07:57:41.906Z,36.52
2017-01-08T07:58:22.517Z,36.61
2017-01-08T07:59:03.104Z,36.71
2017-01-08T07:59:43.682Z,36.61
2017-01-08T08:00:24.271Z,36.52
2017-01-08T08:01:04.854Z,36.61
2017-01-08T08:01:45.471Z,36.61
2017-01-08T08:02:26.049Z,36.61
2017-01-08T08:03:06.643Z,36.61
2017-01-08T08:03:47.236Z,36.71
2017-01-08T08:04:27.824Z,36.71
2017-01-08T08:05:08.408Z,36.71
2017-01-08T08:05:48.986Z,36.61
2017-01-08T08:06:29.565Z,36.61
2017-01-08T08:07:10.159Z,36.52
2017-01-08T08:07:50.744Z,36.71
2017-01-08T08:08:31.337Z,36.81
2017-01-08T08:09:11.915Z,36.52
2017-01-08T08:09:52.492Z,36.61
2017-01-08T08:10:33.077Z,36.71
2017-01-08T08:11:13.675Z,36.43
2017-01-08T08:11:54.258Z,36.61
2017-01-08T08:12:34.835Z,36.61
2017-01-08T08:13:15.429Z,36.61
2017-01-08T08:13:56.014Z,36.61
2017-01-08T08:14:36.599Z,36.61
2017-01-08T08:15:17.193Z,36.52
2017-01-08T08:15:57.771Z,36.52
2017-01-08T08:16:38.357Z,36.43
2017-01-08T08:17:18.938Z,36.43
2017-01-08T08:17:59.519Z,36.43
2017-01-08T08:18:40.103Z,36.52
2017-01-08T08:19:20.687Z,36.43
2017-01-08T08:20:01.276Z,36.52
2017-01-08T08:20:41.887Z,36.52
2017-01-08T08:21:22.473Z,36.52
2017-01-08T08:22:03.070Z,36.52
2017-01-08T08:22:43.653Z,36.52
2017-01-08T08:23:24.253Z,36.52
2017-01-08T08:24:04.860Z,36.61
2017-01-08T08:24:45.450Z,36.52
2017-01-08T08:25:26.043Z,36.52
2017-01-08T08:26:06.645Z,36.43
2017-01-08T08:26:47.240Z,36.43
2017-01-08T08:27:27.820Z,36.43
2017-01-08T08:28:08.421Z,36.52
2017-01-08T08:28:48.995Z,36.43
2017-01-08T08:29:29.576Z,36.61
2017-01-08T08:30:10.157Z,36.33
2017-01-08T08:30:50.742Z,36.43
2017-01-08T08:31:31.322Z,36.43
2017-01-08T08:32:11.903Z,36.33
2017-01-08T08:32:52.495Z,36.33
2017-01-08T08:33:33.075Z,36.52
2017-01-08T08:34:13.683Z,36.43
2017-01-08T08:34:54.273Z,36.33
2017-01-08T08:35:34.874Z,36.33
2017-01-08T08:36:15.459Z,36.33
2017-01-08T08:36:56.040Z,36.43
2017-01-08T08:37:36.629Z,36.33
2017-01-08T08:38:17.243Z,36.33
2017-01-08T08:38:57.835Z,36.43
2017-01-08T08:39:38.420Z,36.52
2017-01-08T08:40:19.001Z,36.52
2017-01-08T08:40:59.585Z,36.43
2017-01-08T08:41:40.174Z,36.33
2017-01-08T08:42:20.765Z,36.43
2017-01-08T08:43:01.360Z,36.33
2017-01-08T08:43:41.930Z,36.43